Time;durP1;ratioP1;P1;durP2;ratioP2;P2;SDS_P1;SDS_P2;PMS_P1;PMS_P2;Temp;Humidity;BMP_temperature;BMP_pressure;BME280_temperature;BME280_humidity;BME280_pressure;Samples;Min_cycle;Max_cycle;Signal;HPM_P1;HPM_P2
2020/12/25 00:00:44;;;;;;;8.75;4.07;;;22.50;52.70;;;;;;5030212;28;45392;-47
2020/12/25 00:03:14;;;;;;;7.13;4.22;;;22.50;52.70;;;;;;5029831;28;45494;-47
2020/12/25 00:05:43;;;;;;;8.73;4.18;;;22.50;52.70;;;;;;5031135;28;45435;-48
2020/12/25 00:08:09;;;;;;;7.47;3.38;;;22.50;53.30;;;;;;5046832;28;46167;-47
2020/12/25 00:10:34;;;;;;;7.80;3.53;;;22.50;52.70;;;;;;5028199;28;45440;-46
2020/12/25 00:13:00;;;;;;;7.53;4.18;;;22.50;52.70;;;;;;5027799;28;45454;-46
2020/12/25 00:15:25;;;;;;;6.50;4.15;;;22.50;52.60;;;;;;5028076;28;45499;-47
2020/12/25 00:17:51;;;;;;;7.45;3.78;;;22.50;52.70;;;;;;5026869;28;46172;-47
2020/12/25 00:20:17;;;;;;;8.20;3.92;;;22.50;52.60;;;;;;5027640;28;45661;-47
2020/12/25 00:22:42;;;;;;;5.88;3.40;;;22.50;52.60;;;;;;5044383;28;45414;-47
2020/12/25 00:25:08;;;;;;;7.85;3.80;;;22.50;52.60;;;;;;5029449;28;45401;-47
2020/12/25 00:27:33;;;;;;;6.63;3.63;;;22.50;52.60;;;;;;5029899;28;45486;-46
2020/12/25 00:29:59;;;;;;;5.30;3.63;;;22.50;52.60;;;;;;5029451;28;45384;-48
2020/12/25 00:32:25;;;;;;;6.35;3.45;;;22.50;52.50;;;;;;5028755;28;45319;-47
2020/12/25 00:34:50;;;;;;;5.20;3.20;;;22.50;52.50;;;;;;5029775;28;45603;-47
2020/12/25 00:37:16;;;;;;;7.03;3.83;;;22.50;52.50;;;;;;5045882;28;45350;-47
2020/12/25 00:39:42;;;;;;;7.05;3.60;;;22.50;52.50;;;;;;5026206;28;45415;-49
2020/12/25 00:42:07;;;;;;;6.07;3.55;;;22.40;52.40;;;;;;5026620;28;45275;-47
2020/12/25 00:44:33;;;;;;;6.22;3.45;;;22.50;52.50;;;;;;5038382;28;45332;-47
2020/12/25 00:46:58;;;;;;;6.20;2.83;;;22.40;52.40;;;;;;5045958;28;47293;-47
2020/12/25 00:49:24;;;;;;;7.10;3.35;;;22.40;52.40;;;;;;5045737;28;45329;-46
2020/12/25 00:51:50;;;;;;;7.10;2.95;;;22.40;52.40;;;;;;5046422;28;45339;-48
2020/12/25 00:54:15;;;;;;;5.85;3.17;;;22.40;52.40;;;;;;5046834;28;45391;-47
2020/12/25 00:56:41;;;;;;;7.20;3.72;;;22.40;52.40;;;;;;5046046;28;47036;-49
2020/12/25 00:59:07;;;;;;;5.75;2.97;;;22.40;52.40;;;;;;5046033;28;45419;-47
2020/12/25 01:01:37;;;;;;;5.40;3.03;;;22.40;52.40;;;;;;5046041;28;45385;-47
2020/12/25 01:04:02;;;;;;;4.75;2.85;;;22.40;52.40;;;;;;5046692;28;45437;-47
2020/12/25 01:06:28;;;;;;;5.70;3.05;;;22.40;52.40;;;;;;5045900;28;46040;-48
2020/12/25 01:08:53;;;;;;;7.13;3.15;;;22.40;52.40;;;;;;5046085;28;45270;-47
2020/12/25 01:11:26;;;;;;;5.10;2.85;;;22.40;52.40;;;;;;5047292;28;45502;-48
2020/12/25 01:13:51;;;;;;;4.93;2.50;;;22.40;52.40;;;;;;5047029;28;45286;-47
2020/12/25 01:16:17;;;;;;;4.53;2.85;;;22.40;52.40;;;;;;5047973;28;46687;-46
2020/12/25 01:18:44;;;;;;;5.28;3.00;;;22.40;52.30;;;;;;5049279;28;45331;-46
2020/12/25 01:21:10;;;;;;;5.07;2.70;;;22.40;52.30;;;;;;5049710;28;45388;-46
2020/12/25 01:23:36;;;;;;;5.68;3.55;;;22.40;52.30;;;;;;5050086;28;45616;-46
2020/12/25 01:26:01;;;;;;;6.88;3.28;;;22.40;52.30;;;;;;5048861;28;46946;-46
2020/12/25 01:28:27;;;;;;;5.47;2.78;;;22.40;52.30;;;;;;5049194;28;45487;-48
2020/12/25 01:30:53;;;;;;;5.88;3.15;;;22.40;52.30;;;;;;5048426;28;45910;-49
2020/12/25 01:33:18;;;;;;;5.47;2.92;;;22.40;52.30;;;;;;5033178;28;45351;-48
2020/12/25 01:35:44;;;;;;;6.00;3.08;;;22.40;52.30;;;;;;5031883;28;47061;-49
2020/12/25 01:38:09;;;;;;;5.60;2.95;;;22.30;52.20;;;;;;5048401;28;45388;-47
2020/12/25 01:40:35;;;;;;;6.53;3.35;;;22.30;52.30;;;;;;5028600;28;45419;-48
2020/12/25 01:43:01;;;;;;;4.95;2.67;;;22.30;52.30;;;;;;5013231;28;45506;-48
2020/12/25 01:45:27;;;;;;;4.97;2.40;;;22.30;52.30;;;;;;5028469;28;46065;-48
2020/12/25 01:47:54;;;;;;;6.82;2.45;;;22.30;52.20;;;;;;5028247;28;45313;-48
2020/12/25 01:50:19;;;;;;;5.88;2.85;;;22.40;52.30;;;;;;5028843;28;45234;-48
2020/12/25 01:52:46;;;;;;;4.85;2.70;;;22.30;52.20;;;;;;5029457;28;45451;-48
2020/12/25 01:55:12;;;;;;;5.35;2.85;;;22.30;52.20;;;;;;5028866;28;46311;-48
2020/12/25 01:57:38;;;;;;;3.63;2.10;;;22.40;52.30;;;;;;5028424;28;45312;-46
2020/12/25 02:00:04;;;;;;;5.15;2.60;;;22.30;52.20;;;;;;5028769;28;45518;-47
2020/12/25 02:02:30;;;;;;;4.53;2.40;;;22.30;52.20;;;;;;5029258;28;45622;-47
2020/12/25 02:04:55;;;;;;;4.60;2.53;;;22.30;52.20;;;;;;5028720;28;46069;-47
2020/12/25 02:07:21;;;;;;;6.35;2.25;;;22.30;52.20;;;;;;5028416;28;45492;-48
2020/12/25 02:09:47;;;;;;;4.63;2.40;;;22.30;52.20;;;;;;5028649;28;45300;-47
2020/12/25 02:12:12;;;;;;;6.50;3.30;;;22.30;52.20;;;;;;5029064;28;45688;-46
2020/12/25 02:14:38;;;;;;;5.05;2.65;;;22.30;52.20;;;;;;5028234;28;46060;-47
2020/12/25 02:17:03;;;;;;;4.05;2.30;;;22.30;52.20;;;;;;5028493;28;45366;-47
2020/12/25 02:19:29;;;;;;;5.65;2.90;;;22.30;52.20;;;;;;5028532;28;45451;-46
2020/12/25 02:21:55;;;;;;;5.47;3.05;;;22.30;52.20;;;;;;5028848;28;45629;-47
2020/12/25 02:24:20;;;;;;;4.93;2.67;;;22.30;52.20;;;;;;5028244;28;46175;-47
2020/12/25 02:26:46;;;;;;;4.75;2.40;;;22.30;52.20;;;;;;5028186;28;45473;-47
2020/12/25 02:29:11;;;;;;;4.00;2.25;;;22.20;52.10;;;;;;5028155;28;45451;-47
2020/12/25 02:31:37;;;;;;;5.03;2.60;;;22.20;52.10;;;;;;5032853;28;45543;-46
2020/12/25 02:34:03;;;;;;;4.15;2.20;;;22.20;52.10;;;;;;5011546;28;46102;-47
2020/12/25 02:36:28;;;;;;;3.92;2.30;;;22.20;52.10;;;;;;5041650;28;45421;-47
2020/12/25 02:38:54;;;;;;;5.00;2.83;;;22.20;52.10;;;;;;5030928;28;45293;-47
2020/12/25 02:41:21;;;;;;;4.40;2.15;;;22.20;52.10;;;;;;5031965;28;45717;-47
2020/12/25 02:43:48;;;;;;;5.25;2.40;;;22.20;52.10;;;;;;5031590;28;47031;-49
2020/12/25 02:46:13;;;;;;;6.28;2.58;;;22.20;52.00;;;;;;5031247;28;45290;-47
2020/12/25 02:48:39;;;;;;;4.80;2.38;;;22.20;52.00;;;;;;5031363;28;45361;-47
2020/12/25 02:51:05;;;;;;;4.28;2.00;;;22.20;52.00;;;;;;5048743;28;45509;-47
2020/12/25 02:53:30;;;;;;;5.55;2.65;;;22.20;52.00;;;;;;5049211;28;46297;-47
2020/12/25 02:55:56;;;;;;;3.97;1.90;;;22.20;52.00;;;;;;5030872;28;45487;-47
2020/12/25 02:58:21;;;;;;;3.85;2.08;;;22.20;52.00;;;;;;5031368;28;45360;-47
2020/12/25 03:00:47;;;;;;;4.30;2.38;;;22.20;52.00;;;;;;5031570;28;45300;-46
2020/12/25 03:03:13;;;;;;;3.90;2.35;;;22.20;51.90;;;;;;5030729;28;47082;-48
2020/12/25 03:05:38;;;;;;;6.55;2.47;;;22.20;51.90;;;;;;5030910;28;45407;-47
2020/12/25 03:08:04;;;;;;;3.88;2.00;;;22.20;51.90;;;;;;5031144;28;45285;-47
2020/12/25 03:10:30;;;;;;;5.05;2.67;;;22.20;51.90;;;;;;5031268;28;45387;-47
2020/12/25 03:12:55;;;;;;;4.18;2.10;;;22.20;51.90;;;;;;5030814;28;46974;-47
2020/12/25 03:15:21;;;;;;;4.72;2.10;;;22.20;51.90;;;;;;5030898;28;45313;-46
2020/12/25 03:17:47;;;;;;;3.95;2.00;;;22.20;51.90;;;;;;5047838;28;45336;-48
2020/12/25 03:20:12;;;;;;;5.00;2.15;;;22.20;51.90;;;;;;5031392;28;45657;-48
2020/12/25 03:22:38;;;;;;;3.65;1.75;;;22.20;51.80;;;;;;5030920;28;45980;-45
2020/12/25 03:25:03;;;;;;;3.83;2.00;;;22.20;51.80;;;;;;5030790;28;45436;-48
2020/12/25 03:27:29;;;;;;;2.83;1.65;;;22.20;51.80;;;;;;5030652;28;45410;-47
2020/12/25 03:29:55;;;;;;;4.38;2.25;;;22.20;51.80;;;;;;5047873;28;46073;-47
2020/12/25 03:32:20;;;;;;;3.83;2.13;;;22.20;51.90;;;;;;5046319;28;45298;-48
2020/12/25 03:34:46;;;;;;;3.60;1.73;;;22.20;51.80;;;;;;5030722;28;45333;-48
2020/12/25 03:37:11;;;;;;;4.55;2.33;;;22.20;51.90;;;;;;5046721;28;45350;-47
2020/12/25 03:39:37;;;;;;;3.38;1.52;;;22.10;51.80;;;;;;5030283;28;45445;-47
2020/12/25 03:42:03;;;;;;;3.70;1.80;;;22.10;51.80;;;;;;5029960;28;46248;-47
2020/12/25 03:44:28;;;;;;;5.70;2.38;;;22.20;51.80;;;;;;5030306;28;45388;-47
2020/12/25 03:46:54;;;;;;;4.20;2.08;;;22.10;51.80;;;;;;5030763;28;45369;-48
2020/12/25 03:49:19;;;;;;;4.13;1.98;;;22.20;51.80;;;;;;5031072;28;45567;-47
2020/12/25 03:51:45;;;;;;;3.58;1.70;;;22.10;51.80;;;;;;5046753;28;47236;-47
2020/12/25 03:54:11;;;;;;;5.45;2.50;;;22.10;51.80;;;;;;5030230;28;45676;-47
2020/12/25 03:56:36;;;;;;;4.35;2.10;;;22.10;51.80;;;;;;5047223;28;45483;-47
2020/12/25 03:59:02;;;;;;;3.90;2.03;;;22.10;51.80;;;;;;5030780;28;45527;-47
2020/12/25 04:01:27;;;;;;;3.10;1.88;;;22.10;51.80;;;;;;5030519;28;46373;-48
2020/12/25 04:03:53;;;;;;;3.30;1.98;;;22.10;51.80;;;;;;5046852;28;45351;-47
2020/12/25 04:06:19;;;;;;;3.75;1.90;;;22.10;51.80;;;;;;5030245;28;45384;-48
2020/12/25 04:08:45;;;;;;;3.97;1.70;;;22.10;51.70;;;;;;5030642;28;45440;-47
2020/12/25 04:11:10;;;;;;;4.35;2.38;;;22.10;51.70;;;;;;5046822;28;46768;-47
2020/12/25 04:13:36;;;;;;;3.80;1.58;;;22.10;51.70;;;;;;5029873;28;45442;-47
2020/12/25 04:16:02;;;;;;;3.70;1.98;;;22.10;51.70;;;;;;5029862;28;45333;-49
2020/12/25 04:18:28;;;;;;;4.40;1.85;;;22.10;51.70;;;;;;5047563;28;45504;-48
2020/12/25 04:20:56;;;;;;;3.70;1.67;;;22.10;51.70;;;;;;5030017;28;49055;-48
2020/12/25 04:23:21;;;;;;;3.10;1.63;;;22.00;51.60;;;;;;5046459;28;45486;-48
2020/12/25 04:25:47;;;;;;;3.60;1.80;;;22.00;51.60;;;;;;5046748;28;45378;-48
2020/12/25 04:28:12;;;;;;;4.68;2.08;;;22.00;51.60;;;;;;5030327;28;45298;-48
2020/12/25 04:30:38;;;;;;;4.72;1.70;;;22.10;51.70;;;;;;5044822;28;45436;-48
2020/12/25 04:33:04;;;;;;;3.97;1.63;;;22.10;51.60;;;;;;5029671;28;45284;-48
2020/12/25 04:35:29;;;;;;;3.83;1.77;;;22.20;51.70;;;;;;5043145;28;45272;-48
2020/12/25 04:37:55;;;;;;;4.00;1.98;;;22.10;52.40;;;;;;5026944;28;45498;-48
2020/12/25 04:40:20;;;;;;;3.92;2.13;;;22.20;52.60;;;;;;5046128;28;46255;-48
2020/12/25 04:42:49;;;;;;;4.28;1.98;;;22.20;52.70;;;;;;5045858;28;45467;-48
2020/12/25 04:45:15;;;;;;;5.05;1.88;;;22.20;52.60;;;;;;5046376;28;45292;-48
2020/12/25 04:47:41;;;;;;;4.53;1.80;;;22.20;52.50;;;;;;5030006;28;45265;-49
2020/12/25 04:50:07;;;;;;;3.85;1.90;;;22.20;52.20;;;;;;5031385;28;47174;-49
2020/12/25 04:52:32;;;;;;;4.28;2.00;;;22.20;51.90;;;;;;5033069;28;45293;-51
2020/12/25 04:54:58;;;;;;;4.13;1.70;;;22.30;51.90;;;;;;5033196;28;45394;-48
2020/12/25 04:57:23;;;;;;;3.85;1.80;;;22.30;51.80;;;;;;5033566;28;45414;-48
2020/12/25 04:59:49;;;;;;;3.03;1.55;;;22.30;51.70;;;;;;5032932;28;45961;-48
2020/12/25 05:02:15;;;;;;;3.67;1.75;;;22.40;51.70;;;;;;5031739;28;45639;-48
2020/12/25 05:04:41;;;;;;;3.72;1.60;;;22.40;51.60;;;;;;5049791;28;45339;-48
2020/12/25 05:07:07;;;;;;;2.88;1.45;;;22.40;51.50;;;;;;5050414;28;45400;-48
2020/12/25 05:09:33;;;;;;;3.30;1.55;;;22.40;51.50;;;;;;5049647;28;46083;-48
2020/12/25 05:11:58;;;;;;;4.10;1.92;;;22.40;51.40;;;;;;5049278;28;45471;-48
2020/12/25 05:14:33;;;;;;;2.95;1.65;;;22.40;51.40;;;;;;5049733;28;45360;-48
2020/12/25 05:16:59;;;;;;;3.20;1.55;;;22.40;51.40;;;;;;5051577;28;45367;-47
2020/12/25 05:19:29;;;;;;;3.05;1.83;;;22.40;51.50;;;;;;5049098;28;47104;-48
2020/12/25 05:22:01;;;;;;;3.35;1.70;;;22.40;51.40;;;;;;5049574;28;45266;-48
2020/12/25 05:24:26;;;;;;;3.20;1.63;;;22.50;51.20;;;;;;5049719;28;45406;-48
2020/12/25 05:26:56;;;;;;;5.00;1.80;;;22.50;51.20;;;;;;5049717;28;45283;-48
2020/12/25 05:29:25;;;;;;;3.58;1.55;;;22.50;51.10;;;;;;5049261;28;46930;-47
2020/12/25 05:31:51;;;;;;;3.30;1.50;;;22.50;51.10;;;;;;5048780;28;46090;-47
2020/12/25 05:34:17;;;;;;;2.78;1.45;;;22.60;51.20;;;;;;5049273;28;45336;-47
2020/12/25 05:36:53;;;;;;;2.90;1.42;;;22.60;51.10;;;;;;5032567;28;45622;-47
2020/12/25 05:39:34;;;;;;;3.15;1.77;;;22.60;51.10;;;;;;5028890;28;45551;-47
2020/12/25 05:42:04;;;;;;;2.78;1.35;;;22.60;51.10;;;;;;5029735;28;45393;-46
2020/12/25 05:44:35;;;;;;;3.20;1.70;;;22.60;51.00;;;;;;5028549;28;45397;-46
2020/12/25 05:47:01;;;;;;;3.38;1.77;;;22.70;51.10;;;;;;5029520;28;45511;-49
2020/12/25 05:49:27;;;;;;;3.50;1.42;;;22.70;51.20;;;;;;5028824;28;45199;-48
2020/12/25 05:51:53;;;;;;;3.38;2.00;;;22.80;51.20;;;;;;5028676;28;45356;-48
2020/12/25 05:54:20;;;;;;;2.83;1.50;;;22.80;51.30;;;;;;5012597;28;45268;-48
2020/12/25 05:56:51;;;;;;;3.90;1.95;;;22.80;51.10;;;;;;5029567;28;45577;-48
2020/12/25 05:59:21;;;;;;;3.20;1.50;;;22.80;51.10;;;;;;5028594;28;46956;-48
2020/12/25 06:01:47;;;;;;;3.47;1.63;;;22.80;51.10;;;;;;5012001;28;45351;-49
2020/12/25 06:04:13;;;;;;;2.67;1.48;;;22.80;51.60;;;;;;5012430;28;45368;-48
2020/12/25 06:06:38;;;;;;;2.97;1.50;;;22.90;51.00;;;;;;5012462;28;45342;-46
2020/12/25 06:09:05;;;;;;;2.75;1.42;;;22.90;50.90;;;;;;5012002;28;45497;-47
2020/12/25 06:11:31;;;;;;;2.88;1.52;;;22.90;50.80;;;;;;5028540;28;45436;-47
2020/12/25 06:13:58;;;;;;;2.97;1.40;;;22.90;50.80;;;;;;5012171;28;45252;-47
2020/12/25 06:16:23;;;;;;;3.33;1.60;;;22.90;50.90;;;;;;5028798;28;45335;-49
2020/12/25 06:19:03;;;;;;;3.10;1.73;;;22.90;51.00;;;;;;5012013;28;45439;-47
2020/12/25 06:21:36;;;;;;;2.80;1.45;;;23.00;51.00;;;;;;5036196;28;45414;-47
2020/12/25 06:24:02;;;;;;;2.75;1.50;;;23.00;50.90;;;;;;5030611;28;45406;-50
2020/12/25 06:26:28;;;;;;;3.15;1.63;;;23.00;50.80;;;;;;5032190;28;45481;-47
2020/12/25 06:28:53;;;;;;;2.47;1.35;;;23.10;50.80;;;;;;5030155;28;45344;-46
2020/12/25 06:31:48;;;;;;;3.00;1.33;;;23.10;50.70;;;;;;5043789;28;45511;-47
2020/12/25 06:34:14;;;;;;;3.03;1.40;;;23.10;50.50;;;;;;5044732;28;45685;-47
2020/12/25 06:36:44;;;;;;;3.10;1.30;;;23.20;50.70;;;;;;5031517;28;45452;-48
2020/12/25 06:39:11;;;;;;;4.47;1.70;;;23.20;50.60;;;;;;5046823;28;46001;-48
2020/12/25 06:41:37;;;;;;;2.85;1.30;;;23.20;50.50;;;;;;5046616;28;45406;-49
2020/12/25 06:44:09;;;;;;;3.33;1.42;;;23.30;50.50;;;;;;5035813;28;45341;-47
2020/12/25 06:46:35;;;;;;;3.80;1.63;;;23.30;50.50;;;;;;5049555;28;45534;-47
2020/12/25 06:49:05;;;;;;;3.13;1.38;;;23.30;50.50;;;;;;5047584;28;46964;-46
2020/12/25 06:51:30;;;;;;;2.63;1.33;;;23.30;50.50;;;;;;5047860;28;45343;-48
2020/12/25 06:53:56;;;;;;;3.55;1.17;;;23.30;50.40;;;;;;5048129;28;45393;-48
2020/12/25 06:56:22;;;;;;;2.45;1.15;;;23.30;50.40;;;;;;5048073;28;45237;-48
2020/12/25 06:58:49;;;;;;;3.22;1.17;;;23.30;50.30;;;;;;5030920;28;45613;-48
2020/12/25 07:01:16;;;;;;;3.45;1.60;;;23.30;50.30;;;;;;5027879;28;45353;-47
2020/12/25 07:03:42;;;;;;;2.63;1.42;;;23.30;50.20;;;;;;5047683;28;45444;-47
2020/12/25 07:06:12;;;;;;;3.20;1.52;;;23.30;50.10;;;;;;5031498;28;45390;-48
2020/12/25 07:08:43;;;;;;;3.25;1.48;;;23.30;50.00;;;;;;5030855;28;46922;-48
2020/12/25 07:11:09;;;;;;;4.75;1.77;;;23.30;49.90;;;;;;5048808;28;45426;-47
2020/12/25 07:13:35;;;;;;;3.13;1.90;;;23.30;50.00;;;;;;5027559;28;45455;-48
2020/12/25 07:16:01;;;;;;;3.90;1.58;;;23.30;50.10;;;;;;5031500;28;45518;-48
2020/12/25 07:18:27;;;;;;;5.45;1.80;;;23.30;50.10;;;;;;5030712;28;46538;-48
2020/12/25 07:20:55;;;;;;;5.57;1.95;;;23.40;50.20;;;;;;5030758;28;45435;-48
2020/12/25 07:23:21;;;;;;;6.70;1.90;;;23.40;50.20;;;;;;5047692;28;45397;-46
2020/12/25 07:25:47;;;;;;;4.82;2.08;;;23.40;50.20;;;;;;5029405;28;45569;-47
2020/12/25 07:28:12;;;;;;;5.85;1.63;;;23.50;50.30;;;;;;5026614;28;45418;-48
2020/12/25 07:30:38;;;;;;;4.60;1.73;;;23.50;50.20;;;;;;5024915;28;45372;-48
2020/12/25 07:33:04;;;;;;;3.30;1.77;;;23.50;50.30;;;;;;5047072;28;45485;-48
2020/12/25 07:35:30;;;;;;;4.18;1.80;;;23.50;50.20;;;;;;5046682;28;45340;-48
2020/12/25 07:37:56;;;;;;;3.38;1.67;;;23.50;50.20;;;;;;5046800;28;47105;-48
2020/12/25 07:40:21;;;;;;;4.00;1.80;;;23.60;50.20;;;;;;5045974;28;45241;-48
2020/12/25 07:42:49;;;;;;;4.72;1.92;;;23.60;50.20;;;;;;5047178;28;45365;-48
2020/12/25 07:45:16;;;;;;;4.60;1.60;;;23.70;50.20;;;;;;5047293;28;45315;-48
2020/12/25 07:47:42;;;;;;;6.90;2.05;;;23.70;50.20;;;;;;5047107;28;47358;-49
2020/12/25 07:50:07;;;;;;;3.60;1.75;;;23.70;50.10;;;;;;5046958;28;45460;-48
2020/12/25 07:52:33;;;;;;;3.45;1.50;;;23.70;50.10;;;;;;5047039;28;45406;-48
2020/12/25 07:54:59;;;;;;;5.30;2.20;;;23.70;50.10;;;;;;5035077;28;45471;-48
2020/12/25 07:57:24;;;;;;;3.35;1.80;;;23.70;50.10;;;;;;5041147;28;45524;-47
2020/12/25 07:59:50;;;;;;;3.35;1.80;;;23.80;50.10;;;;;;5020828;28;45375;-46
2020/12/25 08:02:18;;;;;;;4.75;2.42;;;23.80;50.10;;;;;;5025235;28;45343;-47
2020/12/25 08:04:45;;;;;;;5.00;1.80;;;23.90;50.20;;;;;;5042635;28;45361;-47
2020/12/25 08:07:11;;;;;;;6.78;1.73;;;23.90;50.10;;;;;;5025875;28;46304;-47
2020/12/25 08:09:37;;;;;;;4.85;2.50;;;23.90;50.00;;;;;;5030038;28;45308;-46
2020/12/25 08:12:10;;;;;;;3.72;2.00;;;23.90;50.00;;;;;;5029824;28;45392;-46
2020/12/25 08:14:40;;;;;;;5.13;2.00;;;23.90;49.80;;;;;;5030756;28;45427;-47
2020/12/25 08:17:06;;;;;;;5.68;2.42;;;23.90;49.70;;;;;;5029963;28;46080;-46
2020/12/25 08:19:35;;;;;;;6.43;2.88;;;23.80;49.50;;;;;;5025060;28;45497;-46
2020/12/25 08:22:04;;;;;;;10.73;3.13;;;23.80;46.70;;;;;;5029430;28;45373;-46
2020/12/25 08:24:30;;;;;;;4.20;2.63;;;23.70;46.10;;;;;;5023919;28;45333;-46
2020/12/25 08:27:01;;;;;;;7.60;2.22;;;23.70;45.80;;;;;;5032796;28;46378;-46
2020/12/25 08:29:30;;;;;;;13.85;4.07;;;23.70;46.90;;;;;;5019811;28;45471;-46
2020/12/25 08:32:05;;;;;;;7.75;3.90;;;23.60;45.60;;;;;;5038348;28;45347;-46
2020/12/25 08:34:30;;;;;;;;;;;23.50;43.00;;;;;;5034503;28;45392;-46
2020/12/25 08:37:00;;;;;;;6.28;3.65;;;23.40;42.10;;;;;;5037319;28;46120;-46
2020/12/25 08:39:30;;;;;;;14.95;6.15;;;23.30;43.00;;;;;;5019616;28;45262;-46
2020/12/25 08:41:56;;;;;;;19.60;9.05;;;23.20;42.30;;;;;;5036195;28;45312;-46
2020/12/25 08:44:21;;;;;;;26.88;13.50;;;23.10;42.20;;;;;;5017387;28;45312;-46
2020/12/25 08:46:47;;;;;;;19.48;10.98;;;23.10;42.20;;;;;;5021384;28;46157;-46
2020/12/25 08:49:23;;;;;;;22.75;10.02;;;23.10;42.60;;;;;;5016561;28;45502;-47
2020/12/25 08:51:49;;;;;;;31.25;16.52;;;22.90;43.30;;;;;;5037146;28;45383;-46
2020/12/25 08:54:23;;;;;;;35.92;22.10;;;22.90;43.30;;;;;;5016289;28;45570;-47
2020/12/25 08:56:49;;;;;;;25.20;15.55;;;22.80;42.40;;;;;;5026121;28;46119;-46
2020/12/25 08:59:16;;;;;;;18.95;12.20;;;22.80;42.60;;;;;;5017682;28;45350;-46
2020/12/25 09:01:42;;;;;;;19.67;12.65;;;22.80;42.20;;;;;;5037664;28;46116;-46
2020/12/25 09:04:20;;;;;;;13.05;9.77;;;22.80;42.00;;;;;;5019185;28;45489;-47
2020/12/25 09:06:49;;;;;;;14.85;9.48;;;22.70;41.00;;;;;;5035649;28;46261;-46
2020/12/25 09:09:14;;;;;;;12.93;8.38;;;22.70;41.40;;;;;;5016864;28;45253;-46
2020/12/25 09:11:40;;;;;;;11.10;7.55;;;22.60;41.00;;;;;;5035451;28;45610;-47
2020/12/25 09:14:06;;;;;;;12.02;8.32;;;22.60;40.50;;;;;;5019246;28;45400;-48
2020/12/25 09:16:31;;;;;;;11.80;7.35;;;22.60;40.50;;;;;;5035441;28;47150;-47
2020/12/25 09:18:59;;;;;;;11.07;6.18;;;22.50;40.70;;;;;;5018531;28;45686;-47
2020/12/25 09:21:26;;;;;;;10.05;6.50;;;22.50;40.20;;;;;;5016738;28;45340;-47
2020/12/25 09:23:52;;;;;;;12.38;7.22;;;22.50;40.10;;;;;;5039858;28;45554;-46
2020/12/25 09:26:18;;;;;;;12.63;7.30;;;22.50;40.90;;;;;;5019126;28;46185;-46
2020/12/25 09:28:43;;;;;;;15.68;10.63;;;22.60;42.00;;;;;;5036530;28;45333;-47
2020/12/25 09:31:13;;;;;;;22.48;14.73;;;22.70;42.90;;;;;;5019631;28;46248;-46
2020/12/25 09:33:38;;;;;;;32.53;21.67;;;22.80;42.80;;;;;;5036329;28;45502;-47
2020/12/25 09:36:05;;;;;;;29.58;19.98;;;22.80;43.00;;;;;;5019742;28;45564;-47
2020/12/25 09:38:31;;;;;;;26.42;16.40;;;22.80;43.00;;;;;;5022369;28;45490;-46
2020/12/25 09:40:56;;;;;;;23.67;14.15;;;22.80;43.10;;;;;;5027333;28;45310;-46
2020/12/25 09:43:22;;;;;;;20.15;11.55;;;22.90;43.60;;;;;;5017700;28;45509;-49
2020/12/25 09:45:47;;;;;;;18.77;11.77;;;22.90;44.70;;;;;;5037039;28;46865;-50
2020/12/25 09:48:13;;;;;;;14.32;9.85;;;23.00;44.30;;;;;;5024394;28;45486;-47
2020/12/25 09:50:39;;;;;;;19.92;9.70;;;23.30;44.30;;;;;;5021732;28;45560;-46
2020/12/25 09:53:04;;;;;;;16.23;8.88;;;23.30;44.50;;;;;;5053682;28;45640;-46
2020/12/25 09:55:35;;;;;;;13.55;8.70;;;23.40;45.10;;;;;;5020959;28;47023;-46
2020/12/25 09:58:01;;;;;;;13.75;8.50;;;23.40;44.90;;;;;;5038419;28;45277;-45
2020/12/25 10:00:27;;;;;;;14.10;8.80;;;23.50;45.10;;;;;;5021272;28;45388;-44
2020/12/25 10:02:52;;;;;;;14.30;7.32;;;23.50;45.10;;;;;;5025173;28;45296;-45
2020/12/25 10:05:18;;;;;;;11.77;6.93;;;23.60;45.10;;;;;;5022257;28;45434;-45
2020/12/25 10:07:44;;;;;;;12.32;7.28;;;23.70;45.30;;;;;;5020094;28;45381;-45
2020/12/25 10:10:09;;;;;;;11.98;6.60;;;23.70;45.70;;;;;;5020166;28;45393;-46
2020/12/25 10:12:35;;;;;;;10.40;6.07;;;23.70;45.60;;;;;;5021871;28;45463;-45
2020/12/25 10:15:01;;;;;;;9.73;5.57;;;23.70;45.70;;;;;;5023590;28;45359;-45
2020/12/25 10:17:27;;;;;;;11.05;6.32;;;23.70;45.70;;;;;;5022327;28;45380;-45
2020/12/25 10:19:52;;;;;;;9.02;5.47;;;23.70;45.80;;;;;;5040318;28;45498;-45
2020/12/25 10:22:18;;;;;;;8.27;4.93;;;23.70;45.90;;;;;;5021642;28;45519;-46
2020/12/25 10:24:44;;;;;;;13.20;5.70;;;23.70;45.90;;;;;;5016188;28;45313;-46
2020/12/25 10:27:09;;;;;;;11.07;4.88;;;23.80;46.10;;;;;;5022606;28;45617;-46
2020/12/25 10:29:35;;;;;;;8.75;4.80;;;23.70;46.20;;;;;;5040048;28;45345;-45
2020/12/25 10:32:01;;;;;;;8.57;5.45;;;23.80;46.40;;;;;;5028511;28;45284;-46
2020/12/25 10:34:26;;;;;;;7.32;4.55;;;23.70;46.40;;;;;;5027971;28;45336;-45
2020/12/25 10:36:52;;;;;;;9.98;4.95;;;23.80;46.50;;;;;;5023487;28;45276;-47
2020/12/25 10:39:18;;;;;;;9.40;4.40;;;23.80;46.50;;;;;;5027974;28;45460;-45
2020/12/25 10:41:43;;;;;;;7.30;4.32;;;23.90;46.70;;;;;;5052144;28;45349;-45
2020/12/25 10:44:09;;;;;;;7.55;4.50;;;23.80;46.70;;;;;;5051442;28;46003;-45
2020/12/25 10:46:35;;;;;;;10.82;4.30;;;23.80;46.70;;;;;;5025225;28;45309;-46
2020/12/25 10:49:01;;;;;;;6.30;4.38;;;23.90;46.90;;;;;;5044733;28;45379;-46
2020/12/25 10:51:26;;;;;;;6.28;3.80;;;23.70;43.50;;;;;;5028294;28;45299;-45
2020/12/25 10:53:52;;;;;;;8.10;4.40;;;23.50;42.10;;;;;;5028572;28;46049;-46
2020/12/25 10:56:28;;;;;;;8.68;4.32;;;23.60;43.30;;;;;;5027750;28;45389;-46
2020/12/25 10:58:54;;;;;;;13.95;4.90;;;23.60;44.60;;;;;;5027985;28;45455;-46
2020/12/25 11:01:20;;;;;;;9.90;4.85;;;23.70;45.00;;;;;;5028156;28;45646;-45
2020/12/25 11:03:45;;;;;;;9.40;4.72;;;23.60;45.10;;;;;;5028599;28;46931;-46
2020/12/25 11:06:11;;;;;;;11.73;4.03;;;23.70;45.30;;;;;;5027734;28;45495;-46
2020/12/25 11:08:37;;;;;;;10.82;4.90;;;23.70;45.40;;;;;;5027685;28;45307;-45
2020/12/25 11:11:02;;;;;;;14.02;6.40;;;23.70;45.60;;;;;;5038561;28;45534;-46
2020/12/25 11:13:28;;;;;;;16.77;6.05;;;23.70;45.80;;;;;;5027466;28;45958;-46
2020/12/25 11:15:53;;;;;;;15.75;6.47;;;23.80;45.90;;;;;;5027431;28;45282;-46
2020/12/25 11:18:19;;;;;;;18.55;7.30;;;23.80;46.70;;;;;;5027582;28;45363;-45
2020/12/25 11:20:45;;;;;;;14.90;6.07;;;23.80;46.20;;;;;;5027776;28;45598;-46
2020/12/25 11:23:10;;;;;;;17.27;6.32;;;23.80;46.40;;;;;;5027358;28;45456;-46
2020/12/25 11:25:38;;;;;;;16.85;7.15;;;23.80;46.50;;;;;;5026827;28;45355;-48
2020/12/25 11:28:04;;;;;;;17.88;6.97;;;23.80;46.80;;;;;;5038260;28;45442;-46
2020/12/25 11:30:29;;;;;;;19.40;7.13;;;23.80;46.90;;;;;;5047794;28;45565;-46
2020/12/25 11:32:55;;;;;;;21.38;6.88;;;23.80;47.20;;;;;;5047273;28;46976;-46
2020/12/25 11:35:20;;;;;;;20.48;6.60;;;23.80;47.30;;;;;;5047386;28;45284;-46
2020/12/25 11:37:46;;;;;;;19.67;7.13;;;23.80;47.50;;;;;;5047093;28;45584;-46
2020/12/25 11:40:11;;;;;;;18.90;6.97;;;23.70;47.60;;;;;;5030669;28;45450;-46
2020/12/25 11:42:37;;;;;;;19.35;7.70;;;23.80;47.60;;;;;;5048426;28;46532;-46
2020/12/25 11:45:03;;;;;;;18.33;7.28;;;23.70;47.70;;;;;;5016039;28;45387;-46
2020/12/25 11:47:30;;;;;;;18.85;6.45;;;23.70;47.70;;;;;;5026913;28;45326;-47
2020/12/25 11:49:57;;;;;;;20.23;7.13;;;23.70;47.80;;;;;;5047654;28;45420;-47
2020/12/25 11:52:23;;;;;;;19.35;6.53;;;23.70;48.00;;;;;;5039947;28;46161;-47
2020/12/25 11:54:48;;;;;;;13.68;6.18;;;23.70;47.90;;;;;;5027053;28;45397;-46
2020/12/25 11:57:14;;;;;;;20.25;6.40;;;23.70;48.10;;;;;;5038674;28;45418;-46
2020/12/25 11:59:39;;;;;;;15.35;6.05;;;23.70;48.20;;;;;;5046503;28;45657;-46
2020/12/25 12:02:05;;;;;;;14.63;6.57;;;23.60;48.40;;;;;;5047616;28;46111;-46
2020/12/25 12:04:31;;;;;;;13.02;5.57;;;23.70;48.50;;;;;;5030111;28;45237;-47
2020/12/25 12:06:57;;;;;;;15.52;6.30;;;23.60;48.90;;;;;;5046810;28;45169;-46
2020/12/25 12:09:22;;;;;;;14.65;5.68;;;23.60;49.20;;;;;;5030750;28;45208;-46
2020/12/25 12:11:48;;;;;;;14.95;4.97;;;23.60;49.10;;;;;;5029964;28;46073;-46
2020/12/25 12:14:14;;;;;;;10.45;5.20;;;23.60;49.00;;;;;;5030011;28;45445;-45
2020/12/25 12:16:39;;;;;;;17.90;6.32;;;23.60;49.00;;;;;;5046703;28;45391;-46
2020/12/25 12:19:05;;;;;;;14.35;5.38;;;23.50;50.00;;;;;;5044426;28;45389;-46
2020/12/25 12:21:31;;;;;;;15.45;5.43;;;23.50;50.40;;;;;;5026566;28;46060;-46
2020/12/25 12:23:56;;;;;;;16.40;6.15;;;23.50;50.20;;;;;;5011678;28;45452;-46
2020/12/25 12:26:23;;;;;;;12.05;5.20;;;23.50;50.00;;;;;;5042446;28;45664;-46
2020/12/25 12:28:48;;;;;;;12.75;4.80;;;23.40;49.70;;;;;;5028011;28;45599;-47
2020/12/25 12:31:14;;;;;;;16.90;3.78;;;23.40;50.20;;;;;;5036143;28;45463;-46
2020/12/25 12:33:40;;;;;;;14.48;3.97;;;23.40;50.60;;;;;;5046520;28;45251;-46
2020/12/25 12:36:10;;;;;;;8.50;4.07;;;23.30;51.00;;;;;;5028780;28;45410;-46
2020/12/25 12:38:35;;;;;;;15.02;3.83;;;23.20;50.50;;;;;;5046953;28;45569;-46